createdAt,value
2024-01-29T00:00:53.877Z,18.90
2024-01-29T00:03:21.767Z,16.97
2024-01-29T00:05:49.593Z,16.53
2024-01-29T00:08:17.379Z,18.50
2024-01-29T00:10:49.038Z,16.57
2024-01-29T00:13:16.940Z,15.63
2024-01-29T00:15:44.636Z,17.30
2024-01-29T00:18:12.419Z,18.10
2024-01-29T00:20:40.213Z,18.00
2024-01-29T00:23:08.296Z,17.73
2024-01-29T00:25:36.419Z,18.80
2024-01-29T00:28:06.431Z,18.73
2024-01-29T00:30:35.551Z,17.73
2024-01-29T00:33:03.471Z,18.40
2024-01-29T00:35:31.235Z,15.67
2024-01-29T00:37:58.985Z,16.80
2024-01-29T00:40:26.825Z,17.83
2024-01-29T00:42:54.534Z,18.53
2024-01-29T00:45:23.777Z,16.33
2024-01-29T00:47:51.614Z,20.63
2024-01-29T00:50:19.441Z,17.97
2024-01-29T00:52:50.409Z,17.80
2024-01-29T00:55:18.195Z,18.07
2024-01-29T00:57:46.024Z,19.17
2024-01-29T01:00:15.500Z,18.03
2024-01-29T01:02:44.680Z,17.73
2024-01-29T01:05:12.614Z,20.60
2024-01-29T01:07:40.397Z,19.33
2024-01-29T01:10:09.422Z,19.17
2024-01-29T01:12:37.258Z,25.23
2024-01-29T01:15:05.598Z,21.70
2024-01-29T01:17:35.614Z,19.03
2024-01-29T01:20:05.673Z,18.77
2024-01-29T01:22:33.705Z,21.73
2024-01-29T01:25:01.543Z,19.30
2024-01-29T01:27:29.381Z,19.30
2024-01-29T01:29:57.189Z,19.17
2024-01-29T01:32:25.042Z,20.70
2024-01-29T01:34:52.801Z,20.93
2024-01-29T01:37:21.912Z,20.83
2024-01-29T01:39:53.777Z,19.53
2024-01-29T01:42:22.239Z,20.07
2024-01-29T01:44:50.085Z,18.53
2024-01-29T01:47:17.918Z,21.67
2024-01-29T01:49:45.854Z,23.03
2024-01-29T01:52:13.876Z,19.40
2024-01-29T01:54:43.008Z,17.70
2024-01-29T01:57:11.799Z,20.67
2024-01-29T01:59:41.101Z,19.87
2024-01-29T02:02:09.617Z,21.43
2024-01-29T02:04:39.349Z,20.00
2024-01-29T02:07:07.617Z,23.63
2024-01-29T02:09:38.131Z,19.43
2024-01-29T02:12:07.748Z,20.93
2024-01-29T02:14:36.018Z,20.13
2024-01-29T02:17:04.421Z,20.43
2024-01-29T02:19:32.599Z,21.40
2024-01-29T02:22:00.519Z,18.70
2024-01-29T02:24:29.697Z,21.83
2024-01-29T02:26:57.473Z,23.50
2024-01-29T02:29:25.652Z,20.10
2024-01-29T02:31:53.404Z,19.83
2024-01-29T02:34:21.581Z,18.97
2024-01-29T02:36:49.435Z,21.40
2024-01-29T02:39:17.150Z,21.23
2024-01-29T02:41:48.153Z,21.93
2024-01-29T02:44:15.837Z,18.80
2024-01-29T02:46:43.594Z,20.00
2024-01-29T02:49:11.471Z,20.17
2024-01-29T02:51:39.289Z,19.20
2024-01-29T02:54:07.099Z,18.70
2024-01-29T02:56:37.201Z,19.87
2024-01-29T02:59:06.311Z,20.33
2024-01-29T03:01:34.203Z,18.60
2024-01-29T03:04:02.118Z,22.23
2024-01-29T03:06:29.948Z,19.17
2024-01-29T03:08:57.758Z,18.97
2024-01-29T03:11:25.682Z,17.63
2024-01-29T03:13:53.465Z,17.33
2024-01-29T03:16:22.557Z,22.90
2024-01-29T03:18:50.345Z,18.70
2024-01-29T03:21:18.122Z,19.57
2024-01-29T03:23:45.860Z,20.30
2024-01-29T03:26:13.618Z,21.43
2024-01-29T03:28:43.123Z,20.47
2024-01-29T03:31:10.947Z,19.83
2024-01-29T03:33:40.233Z,21.23
2024-01-29T03:36:09.496Z,19.57
2024-01-29T03:38:38.897Z,18.47
2024-01-29T03:41:06.632Z,18.07
2024-01-29T03:43:36.791Z,21.07
2024-01-29T03:46:04.861Z,18.20
2024-01-29T03:48:32.736Z,19.20
2024-01-29T03:51:01.869Z,19.03
2024-01-29T03:53:29.669Z,20.47
2024-01-29T03:55:58.389Z,20.47
2024-01-29T03:58:26.258Z,18.93
2024-01-29T04:00:54.142Z,17.33
2024-01-29T04:03:22.015Z,19.17
2024-01-29T04:05:49.791Z,16.80
2024-01-29T04:08:19.030Z,21.07
2024-01-29T04:10:46.788Z,17.83
2024-01-29T04:13:14.589Z,22.37
2024-01-29T04:15:42.369Z,19.80
2024-01-29T04:18:10.307Z,19.53
2024-01-29T04:20:38.143Z,19.83
2024-01-29T04:23:05.884Z,19.37
2024-01-29T04:25:37.388Z,19.20
2024-01-29T04:28:05.612Z,20.67
2024-01-29T04:30:33.733Z,23.23
2024-01-29T04:33:01.823Z,20.27
2024-01-29T04:35:29.478Z,20.53
2024-01-29T04:37:57.176Z,18.37
2024-01-29T04:40:25.015Z,21.00
2024-01-29T04:42:54.160Z,20.27
2024-01-29T04:45:21.964Z,20.67
2024-01-29T04:47:49.802Z,18.57
2024-01-29T04:50:17.921Z,23.23
2024-01-29T04:52:45.773Z,19.80
2024-01-29T04:55:13.624Z,24.10
2024-01-29T04:57:41.424Z,23.93
2024-01-29T05:00:11.879Z,20.67
2024-01-29T05:02:39.617Z,20.30
2024-01-29T05:05:07.492Z,21.70
2024-01-29T05:07:38.165Z,22.43
2024-01-29T05:10:06.592Z,20.70
2024-01-29T05:12:34.809Z,22.53
2024-01-29T05:15:02.677Z,18.57
2024-01-29T05:17:31.748Z,18.67
2024-01-29T05:19:59.551Z,23.03
2024-01-29T05:22:27.425Z,24.60
2024-01-29T05:24:55.269Z,24.33
2024-01-29T05:27:23.098Z,23.17
2024-01-29T05:29:50.841Z,22.53
2024-01-29T05:32:18.683Z,23.13
2024-01-29T05:34:50.207Z,28.13
2024-01-29T05:37:17.998Z,20.03
2024-01-29T05:39:45.728Z,23.30
2024-01-29T05:42:13.550Z,20.43
2024-01-29T05:44:41.302Z,22.27
2024-01-29T05:47:09.051Z,23.40
2024-01-29T05:49:37.473Z,22.43
2024-01-29T05:52:07.135Z,23.30
2024-01-29T05:54:34.952Z,21.97
2024-01-29T05:57:03.325Z,27.20
2024-01-29T05:59:31.109Z,24.43
2024-01-29T06:01:58.938Z,29.33
2024-01-29T06:04:26.801Z,26.23
2024-01-29T06:06:54.752Z,25.10
2024-01-29T06:09:24.477Z,27.07
2024-01-29T06:11:52.460Z,27.40
2024-01-29T06:14:20.323Z,25.33
2024-01-29T06:16:48.054Z,28.53
2024-01-29T06:19:18.900Z,29.90
2024-01-29T06:21:47.149Z,24.20
2024-01-29T06:24:14.901Z,24.80
2024-01-29T06:26:46.516Z,22.93
2024-01-29T06:29:15.782Z,25.93
2024-01-29T06:31:43.934Z,23.50
2024-01-29T06:34:11.882Z,25.13
2024-01-29T06:36:39.971Z,23.90
2024-01-29T06:39:08.706Z,25.07
2024-01-29T06:41:36.700Z,25.47
2024-01-29T06:44:06.136Z,24.03
2024-01-29T06:46:33.925Z,26.20
2024-01-29T06:49:01.815Z,26.20
2024-01-29T06:51:29.617Z,25.97
2024-01-29T06:53:58.657Z,24.70
2024-01-29T06:56:26.406Z,24.63
2024-01-29T06:58:54.290Z,24.30
2024-01-29T07:01:23.524Z,23.63
2024-01-29T07:03:51.424Z,26.60
2024-01-29T07:06:19.880Z,25.20
2024-01-29T07:08:50.236Z,25.50
2024-01-29T07:11:18.125Z,26.00
2024-01-29T07:13:45.917Z,26.23
2024-01-29T07:16:13.720Z,27.63
2024-01-29T07:18:42.937Z,25.03
2024-01-29T07:21:11.733Z,23.93
2024-01-29T07:23:39.713Z,24.43
2024-01-29T07:26:07.483Z,22.97
2024-01-29T07:28:35.858Z,21.83
2024-01-29T07:31:03.651Z,27.27
2024-01-29T07:33:31.591Z,26.00
2024-01-29T07:36:00.739Z,27.23
2024-01-29T07:38:28.816Z,24.03
2024-01-29T07:40:56.725Z,22.93
2024-01-29T07:43:24.579Z,23.23
2024-01-29T07:45:53.025Z,26.27
2024-01-29T07:48:21.850Z,29.03
2024-01-29T07:50:49.636Z,26.37
2024-01-29T07:53:18.971Z,26.90
2024-01-29T07:55:46.874Z,24.97
2024-01-29T07:58:14.795Z,29.90
2024-01-29T08:00:43.371Z,27.50
2024-01-29T08:03:11.216Z,29.50
2024-01-29T08:05:39.035Z,30.80
2024-01-29T08:08:07.970Z,26.80
2024-01-29T08:10:40.140Z,26.73
2024-01-29T08:13:08.116Z,32.13
2024-01-29T08:15:38.863Z,34.30
2024-01-29T08:18:07.917Z,30.23
2024-01-29T08:20:38.841Z,28.83
2024-01-29T08:23:06.809Z,33.43
2024-01-29T08:25:36.862Z,27.90
2024-01-29T08:28:06.782Z,31.07
2024-01-29T08:30:36.721Z,29.50
2024-01-29T08:33:04.991Z,30.23
2024-01-29T08:35:32.799Z,25.73
2024-01-29T08:38:01.711Z,30.83
2024-01-29T08:40:30.852Z,29.17
2024-01-29T08:42:59.031Z,32.83
2024-01-29T08:45:28.195Z,30.93
2024-01-29T08:47:56.135Z,32.13
2024-01-29T08:50:23.972Z,32.40
2024-01-29T08:52:51.734Z,28.87
2024-01-29T08:55:19.476Z,34.17
2024-01-29T08:57:50.672Z,32.07
2024-01-29T09:00:19.051Z,29.70
2024-01-29T09:02:50.538Z,28.83
2024-01-29T09:05:18.905Z,29.23
2024-01-29T09:07:46.719Z,31.40
2024-01-29T09:10:14.649Z,28.73
2024-01-29T09:12:42.434Z,36.43
2024-01-29T09:15:10.910Z,30.07
2024-01-29T09:17:38.947Z,33.90
2024-01-29T09:20:13.410Z,29.40
2024-01-29T09:22:41.316Z,28.03
2024-01-29T09:25:09.510Z,32.77
2024-01-29T09:27:37.929Z,32.53
2024-01-29T09:30:06.799Z,32.23
2024-01-29T09:32:34.926Z,28.23
2024-01-29T09:35:02.927Z,29.33
2024-01-29T09:37:32.152Z,33.70
2024-01-29T09:39:59.892Z,34.20
2024-01-29T09:42:31.631Z,33.03
2024-01-29T09:45:02.881Z,30.97
2024-01-29T09:47:32.574Z,27.97
2024-01-29T09:50:01.110Z,31.87
2024-01-29T09:52:29.782Z,33.23
2024-01-29T09:55:00.071Z,33.00
2024-01-29T09:57:27.917Z,40.03
2024-01-29T09:59:55.718Z,32.70
2024-01-29T10:02:26.454Z,36.57
2024-01-29T10:04:54.292Z,34.40
2024-01-29T10:07:22.222Z,31.60
2024-01-29T10:09:52.707Z,32.20
2024-01-29T10:12:29.270Z,34.23
2024-01-29T10:14:58.030Z,32.50
2024-01-29T10:17:26.849Z,34.90
2024-01-29T10:19:54.922Z,35.03
2024-01-29T10:22:25.466Z,32.33
2024-01-29T10:25:01.852Z,35.20
2024-01-29T10:27:31.133Z,34.47
2024-01-29T10:29:58.926Z,32.77
2024-01-29T10:32:27.055Z,34.60
2024-01-29T10:34:55.074Z,33.70
2024-01-29T10:37:23.904Z,36.07
2024-01-29T10:39:59.474Z,36.37
2024-01-29T10:42:32.612Z,33.97
2024-01-29T10:45:03.405Z,31.97
2024-01-29T10:47:35.715Z,35.33
2024-01-29T10:50:04.215Z,31.17
2024-01-29T10:52:33.400Z,37.90
2024-01-29T10:55:01.796Z,33.33
2024-01-29T10:57:32.167Z,37.97
2024-01-29T11:00:02.598Z,35.07
2024-01-29T11:02:31.170Z,37.30
2024-01-29T11:04:59.024Z,35.07
2024-01-29T11:07:30.115Z,35.73
2024-01-29T11:10:08.150Z,34.80
2024-01-29T11:12:41.078Z,39.37
2024-01-29T11:15:11.780Z,39.30
2024-01-29T11:17:41.606Z,39.03
2024-01-29T11:20:13.626Z,37.60
2024-01-29T11:22:42.288Z,38.10
2024-01-29T11:25:14.089Z,36.60
2024-01-29T11:27:42.704Z,40.00
2024-01-29T11:30:17.408Z,38.58
2024-01-29T11:32:47.940Z,40.20
2024-01-29T11:35:21.263Z,38.22
2024-01-29T11:37:53.413Z,36.77
2024-01-29T11:40:35.302Z,38.70
2024-01-29T11:43:10.808Z,37.30
2024-01-29T11:45:40.197Z,41.40
2024-01-29T11:48:12.050Z,36.67
2024-01-29T11:50:40.502Z,41.10
2024-01-29T11:53:11.842Z,37.27
2024-01-29T11:55:40.005Z,37.93
2024-01-29T11:58:13.977Z,39.38
2024-01-29T12:00:44.720Z,42.87
2024-01-29T12:03:15.989Z,41.90
2024-01-29T12:05:44.004Z,34.30
2024-01-29T12:08:16.273Z,35.03
2024-01-29T12:10:44.331Z,39.03
2024-01-29T12:13:15.458Z,31.38
2024-01-29T12:15:45.614Z,37.92
2024-01-29T12:18:18.295Z,39.60
2024-01-29T12:20:48.446Z,32.38
2024-01-29T12:23:17.705Z,40.15
2024-01-29T12:25:46.021Z,37.97
2024-01-29T12:28:16.952Z,40.05
2024-01-29T12:30:54.134Z,37.38
2024-01-29T12:33:28.982Z,38.80
2024-01-29T12:35:57.314Z,36.97
2024-01-29T12:38:25.373Z,40.20
2024-01-29T12:40:57.040Z,36.92
2024-01-29T12:43:28.463Z,38.60
2024-01-29T12:46:06.304Z,35.58
2024-01-29T12:48:35.778Z,37.95
2024-01-29T12:51:03.930Z,41.63
2024-01-29T12:53:31.734Z,41.50
2024-01-29T12:55:59.675Z,38.47
2024-01-29T12:58:27.631Z,38.63
2024-01-29T13:00:55.790Z,36.42
2024-01-29T13:03:25.648Z,39.75
2024-01-29T13:05:55.265Z,49.40
2024-01-29T13:08:24.976Z,40.85
2024-01-29T13:10:52.763Z,38.65
2024-01-29T13:13:23.366Z,41.97
2024-01-29T13:15:52.482Z,43.38
2024-01-29T13:18:20.502Z,38.60
2024-01-29T13:20:49.709Z,42.55
2024-01-29T13:23:18.406Z,39.38
2024-01-29T13:25:48.161Z,37.78
2024-01-29T13:28:15.993Z,37.72
2024-01-29T13:30:44.449Z,39.53
2024-01-29T13:33:13.224Z,41.13
2024-01-29T13:35:41.051Z,41.85
2024-01-29T13:38:10.118Z,36.17
2024-01-29T13:40:40.663Z,39.63
2024-01-29T13:43:09.333Z,40.08
2024-01-29T13:45:37.605Z,37.45
2024-01-29T13:48:06.377Z,39.15
2024-01-29T13:50:35.591Z,37.97
2024-01-29T13:53:03.548Z,41.63
2024-01-29T13:55:33.774Z,39.45
2024-01-29T13:58:01.612Z,39.33
2024-01-29T14:00:29.555Z,39.00
2024-01-29T14:02:57.362Z,38.53
2024-01-29T14:05:25.228Z,41.95
2024-01-29T14:07:53.108Z,34.80
2024-01-29T14:10:21.139Z,35.40
2024-01-29T14:12:50.383Z,40.45
2024-01-29T14:15:18.745Z,35.05
2024-01-29T14:17:46.656Z,35.95
2024-01-29T14:20:14.881Z,35.30
2024-01-29T14:22:42.820Z,37.67
2024-01-29T14:25:10.652Z,39.42
2024-01-29T14:27:38.511Z,37.00
2024-01-29T14:30:09.188Z,39.95
2024-01-29T14:32:36.989Z,38.55
2024-01-29T14:35:07.223Z,41.80
2024-01-29T14:37:37.949Z,43.58
2024-01-29T14:40:08.932Z,39.67
2024-01-29T14:42:37.081Z,38.63
2024-01-29T14:45:06.306Z,38.70
2024-01-29T14:47:35.929Z,41.17
2024-01-29T14:50:05.095Z,35.25
2024-01-29T14:52:32.915Z,36.08
2024-01-29T14:55:00.786Z,40.70
2024-01-29T14:57:29.118Z,41.30
2024-01-29T14:59:56.966Z,37.13
2024-01-29T15:02:24.847Z,37.95
2024-01-29T15:04:54.267Z,41.15
2024-01-29T15:07:22.384Z,37.70
2024-01-29T15:09:51.213Z,40.67
2024-01-29T15:12:19.767Z,38.40
2024-01-29T15:14:48.024Z,43.92
2024-01-29T15:17:15.999Z,36.60
2024-01-29T15:19:43.979Z,41.75
2024-01-29T15:22:13.375Z,36.30
2024-01-29T15:24:41.406Z,39.83
2024-01-29T15:27:09.377Z,45.08
2024-01-29T15:29:37.769Z,39.27
2024-01-29T15:32:06.126Z,39.30
2024-01-29T15:34:34.017Z,34.88
2024-01-29T15:37:01.929Z,34.97
2024-01-29T15:39:31.650Z,37.55
2024-01-29T15:41:59.381Z,39.50
2024-01-29T15:44:27.782Z,34.65
2024-01-29T15:46:55.536Z,34.58
2024-01-29T15:49:24.385Z,37.47
2024-01-29T15:51:52.260Z,43.38
2024-01-29T15:54:20.047Z,36.17
2024-01-29T15:56:49.238Z,35.38
2024-01-29T15:59:17.033Z,40.75
2024-01-29T16:01:44.846Z,35.47
2024-01-29T16:04:12.727Z,37.53
2024-01-29T16:06:40.525Z,37.78
2024-01-29T16:09:09.176Z,40.58
2024-01-29T16:11:36.847Z,33.42
2024-01-29T16:14:05.929Z,38.67
2024-01-29T16:16:33.846Z,33.83
2024-01-29T16:19:01.604Z,37.10
2024-01-29T16:21:29.336Z,43.10
2024-01-29T16:23:58.336Z,40.50
2024-01-29T16:26:26.105Z,35.53
2024-01-29T16:28:53.757Z,36.92
2024-01-29T16:31:22.945Z,40.97
2024-01-29T16:33:50.702Z,38.07
2024-01-29T16:36:21.840Z,36.28
2024-01-29T16:38:50.781Z,35.00
2024-01-29T16:41:23.089Z,36.55
2024-01-29T16:43:52.224Z,38.88
2024-01-29T16:46:20.622Z,35.37
2024-01-29T16:48:50.520Z,33.43
2024-01-29T16:51:22.859Z,34.60
2024-01-29T16:53:50.678Z,34.72
2024-01-29T16:56:24.117Z,37.47
2024-01-29T16:58:51.904Z,38.92
2024-01-29T17:01:19.665Z,41.00
2024-01-29T17:03:51.544Z,39.13
2024-01-29T17:06:19.493Z,38.55
2024-01-29T17:08:48.287Z,36.03
2024-01-29T17:11:16.040Z,41.43
2024-01-29T17:13:45.626Z,37.57
2024-01-29T17:16:13.590Z,34.87
2024-01-29T17:18:41.454Z,39.47
2024-01-29T17:21:12.712Z,35.63
2024-01-29T17:23:41.077Z,39.80
2024-01-29T17:26:09.559Z,34.58
2024-01-29T17:28:39.016Z,39.67
2024-01-29T17:31:06.870Z,37.27
2024-01-29T17:33:34.910Z,34.80
2024-01-29T17:36:02.834Z,40.13
2024-01-29T17:38:31.971Z,32.70
2024-01-29T17:40:59.850Z,40.10
2024-01-29T17:43:28.342Z,36.20
2024-01-29T17:45:56.712Z,39.33
2024-01-29T17:48:26.480Z,35.40
2024-01-29T17:50:54.308Z,42.23
2024-01-29T17:53:21.971Z,35.87
2024-01-29T17:55:51.100Z,37.20
2024-01-29T17:58:18.988Z,33.47
2024-01-29T18:00:46.806Z,38.73
2024-01-29T18:03:14.685Z,37.30
2024-01-29T18:05:43.599Z,42.23
2024-01-29T18:08:11.534Z,36.97
2024-01-29T18:10:39.235Z,43.83
2024-01-29T18:13:08.316Z,40.83
2024-01-29T18:15:37.017Z,39.67
2024-01-29T18:18:05.225Z,42.90
2024-01-29T18:20:33.204Z,42.27
2024-01-29T18:23:01.805Z,37.67
2024-01-29T18:25:29.505Z,40.17
2024-01-29T18:27:57.329Z,44.87
2024-01-29T18:30:27.914Z,42.47
2024-01-29T18:32:55.723Z,38.40
2024-01-29T18:35:23.642Z,42.30
2024-01-29T18:37:51.692Z,42.17
2024-01-29T18:40:19.484Z,41.73
2024-01-29T18:42:48.268Z,39.77
2024-01-29T18:45:16.291Z,40.33
2024-01-29T18:47:45.532Z,42.93
2024-01-29T18:50:14.679Z,40.50
2024-01-29T18:52:42.716Z,42.37
2024-01-29T18:55:11.311Z,43.27
2024-01-29T18:57:39.197Z,42.93
2024-01-29T19:00:08.217Z,39.97
2024-01-29T19:02:36.369Z,45.57
2024-01-29T19:05:06.140Z,42.13
2024-01-29T19:07:34.725Z,39.87
2024-01-29T19:10:02.704Z,37.97
2024-01-29T19:12:36.521Z,50.07
2024-01-29T19:15:05.690Z,43.77
2024-01-29T19:17:33.963Z,43.77
2024-01-29T19:20:01.728Z,44.37
2024-01-29T19:22:30.820Z,41.63
2024-01-29T19:24:58.657Z,45.23
2024-01-29T19:27:28.127Z,46.97
2024-01-29T19:29:55.864Z,45.90
2024-01-29T19:32:23.656Z,40.03
2024-01-29T19:34:51.451Z,44.87
2024-01-29T19:37:21.468Z,44.53
2024-01-29T19:39:50.748Z,40.20
2024-01-29T19:42:18.516Z,45.23
2024-01-29T19:44:46.435Z,49.90
2024-01-29T19:47:14.814Z,45.90
2024-01-29T19:49:47.265Z,42.20
2024-01-29T19:52:17.359Z,43.73
2024-01-29T19:54:47.667Z,48.03
2024-01-29T19:57:17.294Z,43.23
2024-01-29T19:59:45.310Z,45.10
2024-01-29T20:02:13.281Z,44.13
2024-01-29T20:04:41.213Z,45.23
2024-01-29T20:07:09.081Z,42.53
2024-01-29T20:09:36.943Z,42.67
2024-01-29T20:12:05.142Z,39.80
2024-01-29T20:14:34.752Z,48.92
2024-01-29T20:17:02.555Z,44.63
2024-01-29T20:19:31.026Z,57.47
2024-01-29T20:21:58.774Z,46.43
2024-01-29T20:24:26.909Z,46.20
2024-01-29T20:26:54.637Z,46.70
2024-01-29T20:29:23.012Z,40.97
2024-01-29T20:31:52.198Z,44.27
2024-01-29T20:34:19.961Z,43.03
2024-01-29T20:36:48.065Z,44.50
2024-01-29T20:39:16.615Z,45.20
2024-01-29T20:41:46.994Z,42.47
2024-01-29T20:44:16.598Z,45.70
2024-01-29T20:46:46.075Z,44.73
2024-01-29T20:49:15.856Z,47.27
2024-01-29T20:51:43.922Z,47.27
2024-01-29T20:54:11.845Z,46.43
2024-01-29T20:56:39.822Z,42.07
2024-01-29T20:59:07.767Z,46.07
2024-01-29T21:01:38.440Z,48.90
2024-01-29T21:04:06.696Z,49.33
2024-01-29T21:06:39.984Z,47.43
2024-01-29T21:09:08.024Z,48.63
2024-01-29T21:11:38.876Z,44.90
2024-01-29T21:14:06.572Z,48.20
2024-01-29T21:16:35.635Z,51.13
2024-01-29T21:19:03.485Z,51.47
2024-01-29T21:21:31.435Z,48.53
2024-01-29T21:24:01.851Z,50.93
2024-01-29T21:26:29.625Z,53.47
2024-01-29T21:28:58.525Z,48.03
2024-01-29T21:31:26.504Z,55.20
2024-01-29T21:33:54.424Z,49.93
2024-01-29T21:36:22.204Z,49.80
2024-01-29T21:38:49.907Z,51.80
2024-01-29T21:41:19.039Z,49.90
2024-01-29T21:43:46.742Z,45.40
2024-01-29T21:46:14.627Z,55.90
2024-01-29T21:48:42.509Z,51.40
2024-01-29T21:51:10.391Z,52.97
2024-01-29T21:53:38.108Z,51.17
2024-01-29T21:56:06.368Z,47.10
2024-01-29T21:58:38.379Z,48.33
2024-01-29T22:01:06.379Z,49.63
2024-01-29T22:03:35.074Z,54.53
2024-01-29T22:06:03.025Z,46.03
2024-01-29T22:08:31.459Z,47.47
2024-01-29T22:10:59.230Z,52.47
2024-01-29T22:13:26.994Z,47.53
2024-01-29T22:15:56.290Z,51.17
2024-01-29T22:18:23.988Z,52.90
2024-01-29T22:20:51.747Z,52.53
2024-01-29T22:23:19.529Z,53.53
2024-01-29T22:25:47.467Z,56.67
2024-01-29T22:28:15.180Z,57.13
2024-01-29T22:30:43.011Z,54.40
2024-01-29T22:33:12.282Z,55.67
2024-01-29T22:35:41.171Z,60.20
2024-01-29T22:38:08.914Z,54.97
2024-01-29T22:40:36.709Z,61.03
2024-01-29T22:43:04.963Z,62.43
2024-01-29T22:45:32.726Z,55.73
2024-01-29T22:48:01.125Z,59.90
2024-01-29T22:50:30.475Z,59.17
2024-01-29T22:52:58.159Z,71.20
2024-01-29T22:55:26.602Z,63.47
2024-01-29T22:57:54.428Z,61.97
2024-01-29T23:00:25.631Z,63.63
2024-01-29T23:02:53.873Z,56.17
2024-01-29T23:05:21.854Z,66.80
2024-01-29T23:07:51.345Z,58.63
2024-01-29T23:10:19.260Z,62.07
2024-01-29T23:12:47.240Z,65.67
2024-01-29T23:15:15.182Z,69.10
2024-01-29T23:17:43.369Z,65.03
2024-01-29T23:20:12.618Z,63.40
2024-01-29T23:22:40.441Z,73.70
2024-01-29T23:25:10.309Z,66.33
2024-01-29T23:27:38.141Z,62.57
2024-01-29T23:30:06.836Z,68.90
2024-01-29T23:32:35.812Z,66.77
2024-01-29T23:35:03.578Z,64.10
2024-01-29T23:37:31.370Z,59.97
2024-01-29T23:39:59.253Z,63.77
2024-01-29T23:42:28.586Z,69.23
2024-01-29T23:44:56.421Z,61.57
2024-01-29T23:47:24.170Z,57.00
2024-01-29T23:49:52.098Z,60.97
2024-01-29T23:52:26.998Z,59.40
2024-01-29T23:54:54.882Z,63.20
2024-01-29T23:57:22.833Z,62.97
2024-01-29T23:59:52.343Z,55.23
